Teletech Holdings Inc (TTEC) Latest Bloomsberg Price


Mffais Ranking #1785 Overall / #27 Industry
Industry: It Services

Number of Companies: 78 (Ranking #1933 Overall/#27 Industry)
Inflow: $ 5,405 (K) (Ranking #2189 Overall/#30 Industry)
Outflow: $ -12,694 (K)
Mffais Flow: $ -7,288 (K) (Ranking #1785 Overall/#27 Industry)


Receive a FREE weekly executive review of stocks moving into the top 10, taking the top industy spot or moving up within their industry. Sent directly to your Inbox every Saturday. Sign up today and get last week's review immediately sent to you.

We value and respect your privacy. Please read our Terms and Conditions which states our firm commitment to your privacy. Your email address will not be shared with a third party, nor will it be sold or used for purposes other than subscription for the weekly review.

Owner CPOR Shares Action Qty Chg Invested (K) Total Current Value (K)
Martingale Asset Management L P 2016-09-30 71,509 Added More 52,179 $ 1,503 $ 2,060
Bessemer Group Inc 2016-09-30 30,200 New Holding 30,200 $ 870 $ 870
Dimensional Fund Advisors Lp 2016-09-30 1,370,441 Added More 24,364 $ 702 $ 39,496
Ahl Partners Llp 2016-09-30 22,351 New Holding 22,351 $ 644 $ 644
Td Asset Management Inc 2016-09-30 11,700 New Holding 11,700 $ 337 $ 337
Bridgeway Capital Management Inc 2016-09-30 11,500 New Holding 11,500 $ 331 $ 331
Legal General Group Plc 2016-09-30 13,974 Added More 10,805 $ 311 $ 402
Zebra Capital Management Llc 2016-09-30 40,835 Added More 5,663 $ 163 $ 1,176
Sg Americas Securities Llc 2016-09-30 5,262 New Holding 5,262 $ 151 $ 151
Kbc Group Nv 2016-09-30 29,650 Added More 4,779 $ 137 $ 854
New York State Common Retirement Fund 2016-09-30 27,904 Added More 3,600 $ 103 $ 804
Northern Trust Corp 2016-09-30 286,201 Added More 1,395 $ 40 $ 8,248
Rhumbline Advisers 2016-09-30 29,735 Added More 930 $ 26 $ 856
Springbok Capital Management Llc 2016-09-30 900 New Holding 900 $ 25 $ 25
Thrivent Financial For Lutherans 2016-09-30 8,190 Added More 280 $ 8 $ 236
Blackrock Inc 2016-09-30 1,520 Added More 237 $ 6 $ 43
Zurcher Kantonalbank Zurich Cantonalbank 2016-09-30 637 Added More 206 $ 5 $ 18
California State Teachers Retirement System 2016-09-30 34,641 Added More 200 $ 5 $ 998
Finemark National Bank Trust 2016-09-30 519 Added More 191 $ 5 $ 14
Aperio Group Llc 2016-09-30 7,953 Added More 164 $ 4 $ 229
Next Financial Group Inc 2016-09-30 147 New Holding 147 $ 4 $ 4
Howe Rusling Inc 2016-09-30 125 New Holding 125 $ 3 $ 3
Mason Street Advisors Llc 2016-09-30 3,307 Added More 109 $ 3 $ 95
Pinebridge Investments L P 2016-09-30 2,042 Added More 108 $ 3 $ 58
Eqis Capital Management Inc 2016-09-30 7,636 Added More 107 $ 3 $ 220
Us Bancorp De 2016-09-30 914 Added More 74 $ 2 $ 26
Ls Investment Advisors Llc 2016-09-30 585 No Change 0 $ 0 $ 16
Sei Investments Co 2016-09-30 34 No Change 0 $ 0 $ 0
Teachers Retirement System Of The State Of Kentucky 2016-09-30 6,500 No Change 0 $ 0 $ 187
Nisa Investment Advisors Llc 2016-09-30 10,000 No Change 0 $ 0 $ 288
First Quadrant L P Ca 2016-09-30 10,100 No Change 0 $ 0 $ 291
Pillar Pacific Capital Management Llc 2016-09-30 10,600 No Change 0 $ 0 $ 305
Nationwide Fund Advisors 2016-09-30 10,974 No Change 0 $ 0 $ 316
Advisor Group Inc 2016-09-30 130 No Change 0 $ 0 $ 3
Quadrant Capital Group Llc 2016-09-30 39 No Change 0 $ 0 $ 1
Ifp Advisors Inc 2016-09-30 58 No Change 0 $ 0 $ 1
Whittier Trust Co 2016-09-30 800 No Change 0 $ 0 $ 23
Denali Advisors Llc 2016-09-30 114 No Change 0 $ 0 $ 3
Capital Impact Advisors Llc 2016-09-30 28,919 No Change 0 $ 0 $ 833
State Of Tennessee Treasury Department 2016-09-30 13,109 No Change 0 $ 0 $ 377
Diligent Investors Llc 2016-09-30 10,000 No Change 0 $ 0 $ 288
Public Sector Pension Investment Board 2016-09-30 11,252 No Change 0 $ 0 $ 324
Employees Retirement System Of Texas 2016-09-30 76,000 No Change 0 $ 0 $ 2,190
Parkside Financial Bank Trust 2016-09-30 1,208 No Change 0 $ 0 $ 34
American International Group Inc 2016-09-30 12,153 Sold Some -58 $ -1 $ 350
Teachers Advisors Inc 2016-09-30 25,724 Sold Some -71 $ -2 $ 741
Acrospire Investment Management Llc 2016-09-30 0 Sold All -100 $ -2 $ 0
Pnc Financial Services Group Inc 2016-09-30 0 Sold All -113 $ -3 $ 0
Comerica Bank 2016-09-30 250,538 Sold Some -117 $ -3 $ 7,220
Arizona State Retirement System 2016-09-30 8,295 Sold Some -200 $ -5 $ 239
Texas Permanent School Fund 2016-09-30 12,236 Sold Some -273 $ -7 $ 352
Cutler Group Lp 2016-09-30 0 Sold All -277 $ -7 $ 0
Msi Financial Services Inc 2016-09-30 70 Sold Some -300 $ -8 $ 2
Tower Research Capital Llc Trc 2016-09-30 0 Sold All -329 $ -9 $ 0
Blackrock Investment Management Llc 2016-09-30 69,447 Sold Some -376 $ -10 $ 2,001
Picton Mahoney Asset Management 2016-09-30 2,600 Sold Some -600 $ -17 $ 74
First Mercantile Trust Co 2016-09-30 2,990 Sold Some -780 $ -22 $ 86
Hsbc Holdings Plc 2016-09-30 33,350 Sold Some -1,114 $ -32 $ 961
Shell Asset Management Co 2016-09-30 30,907 Sold Some -1,417 $ -40 $ 890
Horizon Kinetics Llc 2016-09-30 14,136 Sold Some -1,594 $ -45 $ 407
New York State Teachers Retirement System 2016-09-30 13,624 Sold Some -1,600 $ -46 $ 392
White Pine Capital Llc 2016-09-30 26,540 Sold Some -1,800 $ -51 $ 764
Chatham Capital Group Inc 2016-09-30 28,430 Sold Some -2,000 $ -57 $ 819
First Manhattan Co 2016-09-30 234,196 Sold Some -2,132 $ -61 $ 6,749
Swiss National Bank 2016-09-30 29,500 Sold Some -2,200 $ -63 $ 850
Teacher Retirement System Of Texas 2016-09-30 0 Sold All -2,369 $ -68 $ 0
Envestnet Asset Management Inc 2016-09-30 0 Sold All -2,825 $ -81 $ 0
Ironwood Investment Management Llc 2016-09-30 43,592 Sold Some -6,266 $ -180 $ 1,256
Stevens Capital Management Lp 2016-09-30 0 Sold All -7,691 $ -221 $ 0
First Citizens Bank Trust Co 2016-09-30 0 Sold All -12,226 $ -352 $ 0
Lombardia Capital Partners Llc 2016-09-30 9,251 Sold Some -13,636 $ -392 $ 266
Ulysses Management Llc 2016-09-30 80,100 Sold Some -20,000 $ -576 $ 2,308
Emerald Acquisition Ltd 2016-09-30 2,583 Sold Some -21,077 $ -607 $ 74
Strs Ohio 2016-09-30 0 Sold All -25,300 $ -729 $ 0
Parametric Portfolio Associates Llc 2016-09-30 77,173 Sold Some -27,254 $ -785 $ 2,224
Gsa Capital Partners Llp 2016-09-30 16,518 Sold Some -51,858 $ -1,494 $ 476
Tieton Capital Management Llc 2016-09-30 0 Sold All -98,790 $ -2,847 $ 0
Burgundy Asset Management Ltd 2016-09-30 171,702 Sold Some -133,727 $ -3,854 $ 4,948